Portada
METAR-TAF:

METAR-TAF

Aeroports :

Delaware, Ohio, Estats Units d'Amèrica

latitud: 40-16-47N, longitud: 83-06-53W, altitud: 288 m

Observació

L'informe es va fer fa 29 minuts, a les 00:55 UTC
Vent 12 kt del Oest/Nord-Oest
Temperatura 16°C
Humitat 63%
Pressió 1011 hPa
Visibilitat: 16.1 km
Núvols disperses a una alçada de 10000 ft

METAR: KDLZ 180055Z AUTO 30012KT 10SM SCT100 16/09 A2986 RMK AO2 LTG DSNT S

Hora: 21:24 (01:24 UTC)


TAF: manca

Observacions i pronòstics meteorològics de més de 4000 aeroports (METAR i TAF).

Les estacions disponibles són els punts grocs i vermells al mapa.

Posi el ratolí al punt desitjat per veure el nom de l'estació.

Feu clic per veure les observacions i els pronòstics meteorològics.

Per canviar el mapa: feu clic els botons verds amb una creu de color negre per apropar; al botó verd amb un guió per allunyar la imatge; o en les fletxes verdes per a mapes adjacents.


METAR-TAF: